Terminal Aerodrome Forecast
Issued by NWS

Home | Current Version | Previous Version | Text Only | Print | Product List | Glossary On
Versions: 1 2 3 4 5 6 7 8 9 10 11 12 13 14 15 16 17 18 19 20 21 22 23 24 25 26 27 28 29 30
000
FTUS45 KGJT 270536
TAFCNY
TAF
KCNY 270536Z 2706/2806 17006KT P6SM VCSH SCT080 BKN100
     FM271100 28005KT P6SM -SHRA VCTS SCT060CB OVC090
     FM272100 29008G15KT P6SM VCTS SCT070CB BKN100
     FM280200 34008KT P6SM SCT080 BKN120=

USA.gov is the U.S. government's official web portal to all federal, state and local government web resources and services.